Darstellungsparameter: Aktuell verwendete Einstellungen:
Skalierung der Graphiken ... ?
xyx+y,   Skalierungsfaktor:      Skalierung: Modus: x, Faktor: 1
Darstellungszeitraum ... ?
Vom - - bis: - -   Zeitraum: 16.09.2018 - 16.09.2018
Min/Max/Avg-Anzeige ... ?
Zeige MMA aktuell
Zeige MMA Monat
Zeige MMA alles
Zeige --A aktuell
Zeige --A Monat
Zeige --A alles
Keine MMA-Anzeige
MMA:
Keine MMA-Graphiken
MMA-Basis: 16.09.2018 - 16.09.2018
Quicknavigation für Darstellung... ?
Tage:      1T, 2T, 3T, 5T -1T -2T -3T -5T +1T +2T +3T +5T
Wochen: 1W, 2W, 3W -1W -2W -3W +1W +2W +3W
Monate: 1M, 3M, 6M -1M -3M -6M +1M +3M +6M
Jahre:    1J, 3J, 5J, 10J -1J -3J -5J -10J +1J +3J +5J +10J
Nutze für die Darstellung ... ?
Originaldaten oder Mittelwerte auf ...
Stundenbasis Tagesbasis Wochenbasis
Monatsbasis Jahresbasis      Datenbasis: Original-Daten
Darstellen als:
Statistik (Auto) Statistik J:M      Darstellung:
Zur Graphik,    zurück zur Übersicht aller Sensoren.
 
Tabellarische Datenbersicht: ?
 
Sensor: Nr:Datum:Temp:Feuchte:Taupunkt:
Aussen-T/F 1 16-09-2018 00:00:00 11.5 C 80 % 8.17 C
2 16-09-2018 00:05:00 11.4 C 80 % 8.08 C
3 16-09-2018 00:10:00 11.3 C 80 % 7.98 C
4 16-09-2018 00:15:00 11.2 C 81 % 8.06 C
5 16-09-2018 00:20:00 11.1 C 81 % 7.97 C
6 16-09-2018 00:25:00 11.1 C 81 % 7.97 C
7 16-09-2018 00:30:00 10.9 C 82 % 7.95 C
8 16-09-2018 00:35:00 10.8 C 82 % 7.85 C
9 16-09-2018 00:40:00 10.8 C 82 % 7.85 C
10 16-09-2018 00:45:00 10.8 C 82 % 7.85 C
11 16-09-2018 00:50:00 10.7 C 82 % 7.76 C
12 16-09-2018 00:55:00 10.6 C 83 % 7.84 C
13 16-09-2018 01:00:00 10.5 C 83 % 7.74 C
14 16-09-2018 01:05:00 10.4 C 83 % 7.64 C
15 16-09-2018 01:10:00 10.3 C 83 % 7.54 C
16 16-09-2018 01:15:00 10.3 C 84 % 7.72 C
17 16-09-2018 01:20:00 10.2 C 84 % 7.62 C
18 16-09-2018 01:25:00 10.2 C 84 % 7.62 C
19 16-09-2018 01:30:00 10.1 C 84 % 7.52 C
20 16-09-2018 01:35:00 10.1 C 85 % 7.7 C
21 16-09-2018 01:40:00 10.1 C 85 % 7.7 C
22 16-09-2018 01:45:00 10 C 85 % 7.6 C
23 16-09-2018 01:50:00 9.9 C 85 % 7.5 C
24 16-09-2018 01:55:00 9.8 C 85 % 7.4 C
25 16-09-2018 02:00:00 9.7 C 85 % 7.3 C
Sensor: Nr:Datum:Temp:Feuchte:Taupunkt:
Aussen-T/F 26 16-09-2018 02:05:00 9.7 C 86 % 7.47 C
27 16-09-2018 02:10:00 9.6 C 86 % 7.38 C
28 16-09-2018 02:15:00 9.4 C 86 % 7.18 C
29 16-09-2018 02:20:00 9.4 C 87 % 7.35 C
30 16-09-2018 02:25:00 9.3 C 87 % 7.25 C
31 16-09-2018 02:30:00 9.3 C 87 % 7.25 C
32 16-09-2018 02:35:00 9.3 C 87 % 7.25 C
33 16-09-2018 02:40:00 9.2 C 88 % 7.32 C
34 16-09-2018 02:45:00 9.2 C 88 % 7.32 C
35 16-09-2018 02:50:00 9.2 C 88 % 7.32 C
36 16-09-2018 02:55:00 9.2 C 88 % 7.32 C
37 16-09-2018 03:00:00 9.2 C 88 % 7.32 C
38 16-09-2018 03:05:00 9.1 C 88 % 7.22 C
39 16-09-2018 03:10:00 9.1 C 89 % 7.39 C
40 16-09-2018 03:15:00 9.1 C 89 % 7.39 C
41 16-09-2018 03:20:00 9.1 C 89 % 7.39 C
42 16-09-2018 03:25:00 9.1 C 89 % 7.39 C
43 16-09-2018 03:30:00 8.9 C 89 % 7.19 C
44 16-09-2018 03:35:00 8.9 C 89 % 7.19 C
45 16-09-2018 03:40:00 8.9 C 89 % 7.19 C
46 16-09-2018 03:45:00 8.8 C 89 % 7.09 C
47 16-09-2018 03:50:00 8.8 C 89 % 7.09 C
48 16-09-2018 03:55:00 8.7 C 89 % 6.99 C
49 16-09-2018 04:00:00 8.6 C 89 % 6.89 C
50 16-09-2018 04:05:00 8.6 C 90 % 7.06 C
Sensor: Nr:Datum:Temp:Feuchte:Taupunkt:
Aussen-T/F 51 16-09-2018 04:10:00 8.6 C 90 % 7.06 C
52 16-09-2018 04:15:00 8.5 C 90 % 6.96 C
53 16-09-2018 04:20:00 8.5 C 90 % 6.96 C
54 16-09-2018 04:25:00 8.5 C 90 % 6.96 C
55 16-09-2018 04:30:00 8.4 C 90 % 6.86 C
56 16-09-2018 04:35:00 8.3 C 90 % 6.76 C
57 16-09-2018 04:40:00 8.3 C 90 % 6.76 C
58 16-09-2018 04:45:00 8.2 C 90 % 6.66 C
59 16-09-2018 04:50:00 8.1 C 91 % 6.72 C
60 16-09-2018 04:55:00 8.1 C 91 % 6.72 C
61 16-09-2018 05:00:00 8.1 C 91 % 6.72 C
62 16-09-2018 05:05:00 8 C 91 % 6.62 C
63 16-09-2018 05:10:00 8.1 C 91 % 6.72 C
64 16-09-2018 05:15:00 8.1 C 91 % 6.72 C
65 16-09-2018 05:20:00 8 C 91 % 6.62 C
66 16-09-2018 05:25:00 7.9 C 91 % 6.52 C
67 16-09-2018 05:30:00 7.9 C 91 % 6.52 C
68 16-09-2018 05:35:00 7.8 C 91 % 6.43 C
69 16-09-2018 05:40:00 7.8 C 91 % 6.43 C
70 16-09-2018 05:45:00 7.8 C 92 % 6.58 C
71 16-09-2018 05:50:00 7.8 C 92 % 6.58 C
72 16-09-2018 05:55:00 7.7 C 92 % 6.48 C
73 16-09-2018 06:00:00 7.7 C 92 % 6.48 C
74 16-09-2018 06:05:00 7.7 C 92 % 6.48 C
75 16-09-2018 06:10:00 7.6 C 92 % 6.39 C
Sensor: Nr:Datum:Temp:Feuchte:Taupunkt:
Aussen-T/F 76 16-09-2018 06:15:00 7.6 C 92 % 6.39 C
77 16-09-2018 06:20:00 7.5 C 92 % 6.29 C
78 16-09-2018 06:25:00 7.4 C 92 % 6.19 C
79 16-09-2018 06:30:00 7.4 C 92 % 6.19 C
80 16-09-2018 06:35:00 7.4 C 92 % 6.19 C
81 16-09-2018 06:40:00 7.4 C 92 % 6.19 C
82 16-09-2018 06:45:00 7.3 C 92 % 6.09 C
83 16-09-2018 06:50:00 7.3 C 92 % 6.09 C
84 16-09-2018 06:55:00 7.2 C 92 % 5.99 C
85 16-09-2018 07:00:00 7.2 C 92 % 5.99 C
86 16-09-2018 07:05:00 7.1 C 92 % 5.89 C
87 16-09-2018 07:10:00 7.1 C 93 % 6.05 C
88 16-09-2018 07:15:00 7.1 C 93 % 6.05 C
89 16-09-2018 07:20:00 7.1 C 93 % 6.05 C
90 16-09-2018 07:25:00 7.1 C 93 % 6.05 C
91 16-09-2018 07:30:00 7.1 C 93 % 6.05 C
92 16-09-2018 07:35:00 7.1 C 93 % 6.05 C
93 16-09-2018 07:40:00 7.1 C 93 % 6.05 C
94 16-09-2018 07:45:00 7.1 C 93 % 6.05 C
95 16-09-2018 07:50:00 7.1 C 93 % 6.05 C
96 16-09-2018 07:55:00 7.1 C 93 % 6.05 C
97 16-09-2018 08:00:00 7.2 C 93 % 6.15 C
98 16-09-2018 08:05:00 7.2 C 93 % 6.15 C
99 16-09-2018 08:10:00 7.2 C 93 % 6.15 C
100 16-09-2018 08:15:00 7.3 C 94 % 6.4 C
Sensor: Nr:Datum:Temp:Feuchte:Taupunkt:
Aussen-T/F 101 16-09-2018 08:20:00 7.3 C 94 % 6.4 C
102 16-09-2018 08:25:00 7.3 C 94 % 6.4 C
103 16-09-2018 08:30:00 7.4 C 94 % 6.5 C
104 16-09-2018 08:35:00 7.5 C 94 % 6.6 C
105 16-09-2018 08:40:00 7.6 C 94 % 6.7 C
106 16-09-2018 08:45:00 7.6 C 94 % 6.7 C
107 16-09-2018 08:50:00 7.7 C 94 % 6.8 C
108 16-09-2018 08:55:00 7.8 C 94 % 6.9 C
109 16-09-2018 09:00:00 7.8 C 94 % 6.9 C
110 16-09-2018 09:05:00 7.9 C 94 % 7 C
111 16-09-2018 09:10:00 7.9 C 94 % 7 C
112 16-09-2018 09:15:00 8.1 C 94 % 7.19 C
113 16-09-2018 09:20:00 8.2 C 94 % 7.29 C
114 16-09-2018 09:25:00 8.3 C 95 % 7.55 C
115 16-09-2018 09:30:00 8.3 C 95 % 7.55 C
116 16-09-2018 09:35:00 8.5 C 95 % 7.75 C
117 16-09-2018 09:40:00 8.6 C 95 % 7.85 C
118 16-09-2018 09:45:00 8.7 C 95 % 7.94 C
119 16-09-2018 09:50:00 8.8 C 95 % 8.04 C
120 16-09-2018 09:55:00 9 C 95 % 8.24 C
121 16-09-2018 10:00:00 9.1 C 95 % 8.34 C
122 16-09-2018 10:05:00 9.3 C 95 % 8.54 C
123 16-09-2018 10:10:00 9.4 C 95 % 8.64 C
124 16-09-2018 10:15:00 9.6 C 95 % 8.84 C
125 16-09-2018 10:20:00 9.7 C 95 % 8.94 C
Sensor: Nr:Datum:Temp:Feuchte:Taupunkt:
Aussen-T/F 126 16-09-2018 10:25:00 9.9 C 95 % 9.14 C
127 16-09-2018 10:30:00 10.1 C 95 % 9.34 C
128 16-09-2018 10:35:00 10.3 C 95 % 9.54 C
129 16-09-2018 10:40:00 10.4 C 95 % 9.63 C
130 16-09-2018 10:45:00 10.6 C 94 % 9.68 C
131 16-09-2018 10:50:00 10.9 C 94 % 9.97 C
132 16-09-2018 10:55:00 11.2 C 94 % 10.27 C
133 16-09-2018 11:00:00 11.5 C 93 % 10.41 C
134 16-09-2018 11:05:00 11.8 C 93 % 10.71 C
135 16-09-2018 11:10:00 12.1 C 92 % 10.84 C
136 16-09-2018 11:15:00 12.3 C 91 % 10.87 C
137 16-09-2018 11:20:00 12.7 C 90 % 11.1 C
138 16-09-2018 11:25:00 13.1 C 89 % 11.33 C
139 16-09-2018 11:30:00 13.4 C 88 % 11.45 C
140 16-09-2018 11:35:00 13.7 C 86 % 11.4 C
141 16-09-2018 11:40:00 14.1 C 85 % 11.62 C
142 16-09-2018 11:45:00 14.4 C 82 % 11.37 C
143 16-09-2018 11:50:00 14.9 C 80 % 11.48 C
144 16-09-2018 11:55:00 15.3 C 78 % 11.49 C
145 16-09-2018 12:00:00 15.8 C 75 % 11.38 C
146 16-09-2018 12:05:00 16.4 C 71 % 11.13 C
147 16-09-2018 12:10:00 17 C 68 % 11.06 C
148 16-09-2018 12:15:00 17.3 C 67 % 11.12 C
149 16-09-2018 12:20:00 17.7 C 64 % 10.81 C
150 16-09-2018 12:25:00 17.9 C 61 % 10.28 C
Sensor: Nr:Datum:Temp:Feuchte:Taupunkt:
Aussen-T/F 151 16-09-2018 12:30:00 18.3 C 62 % 10.9 C
152 16-09-2018 12:35:00 18.7 C 61 % 11.03 C
153 16-09-2018 12:40:00 19 C 57 % 10.3 C
154 16-09-2018 12:45:00 19.2 C 59 % 11 C
155 16-09-2018 12:50:00 19.5 C 54 % 9.95 C
156 16-09-2018 12:55:00 19.8 C 54 % 10.23 C
157 16-09-2018 13:00:00 20 C 53 % 10.14 C
158 16-09-2018 13:05:00 20.2 C 52 % 10.04 C
159 16-09-2018 13:10:00 20.4 C 52 % 10.22 C
160 16-09-2018 13:15:00 20.6 C 50 % 9.82 C
161 16-09-2018 13:20:00 20.8 C 49 % 9.7 C
162 16-09-2018 13:25:00 21 C 49 % 9.89 C
163 16-09-2018 13:30:00 21.3 C 48 % 9.85 C
164 16-09-2018 13:35:00 21.4 C 48 % 9.94 C
165 16-09-2018 13:40:00 21.6 C 47 % 9.81 C
166 16-09-2018 13:45:00 21.7 C 47 % 9.9 C
167 16-09-2018 13:50:00 21.9 C 49 % 10.71 C
168 16-09-2018 13:55:00 21.9 C 51 % 11.31 C
169 16-09-2018 14:00:00 21.9 C 47 % 10.09 C
170 16-09-2018 14:05:00 22.1 C 46 % 9.95 C
171 16-09-2018 14:10:00 22.3 C 44 % 9.47 C
172 16-09-2018 14:15:00 22.3 C 44 % 9.47 C
173 16-09-2018 14:20:00 22.3 C 45 % 9.8 C
174 16-09-2018 14:25:00 22.3 C 44 % 9.47 C
175 16-09-2018 14:30:00 22.5 C 44 % 9.65 C
Sensor: Nr:Datum:Temp:Feuchte:Taupunkt:
Aussen-T/F 176 16-09-2018 14:35:00 22.7 C 43 % 9.49 C
177 16-09-2018 14:40:00 22.8 C 43 % 9.58 C
178 16-09-2018 14:45:00 22.9 C 44 % 10.01 C
179 16-09-2018 14:50:00 23.1 C 43 % 9.85 C
180 16-09-2018 14:55:00 23.1 C 43 % 9.85 C
181 16-09-2018 15:00:00 23.1 C 43 % 9.85 C
182 16-09-2018 15:05:00 23.2 C 43 % 9.94 C
183 16-09-2018 15:10:00 23.2 C 42 % 9.59 C
184 16-09-2018 15:15:00 23.2 C 42 % 9.59 C
185 16-09-2018 15:20:00 23.2 C 42 % 9.59 C
186 16-09-2018 15:25:00 23.3 C 41 % 9.32 C
187 16-09-2018 15:30:00 23.4 C 42 % 9.77 C
188 16-09-2018 15:35:00 23.6 C 41 % 9.59 C
189 16-09-2018 15:40:00 23.7 C 43 % 10.39 C
190 16-09-2018 15:45:00 23.7 C 40 % 9.31 C
191 16-09-2018 15:50:00 23.8 C 39 % 9.02 C
192 16-09-2018 15:55:00 23.9 C 40 % 9.49 C
193 16-09-2018 16:00:00 23.9 C 39 % 9.11 C
194 16-09-2018 16:05:00 23.9 C 39 % 9.11 C
195 16-09-2018 16:10:00 24.1 C 40 % 9.67 C
196 16-09-2018 16:15:00 24.2 C 38 % 8.99 C
197 16-09-2018 16:20:00 24.2 C 38 % 8.99 C
198 16-09-2018 16:25:00 24.2 C 38 % 8.99 C
199 16-09-2018 16:30:00 24.2 C 38 % 8.99 C
200 16-09-2018 16:35:00 24.2 C 38 % 8.99 C
Sensor: Nr:Datum:Temp:Feuchte:Taupunkt:
Aussen-T/F 201 16-09-2018 16:40:00 24.2 C 39 % 9.38 C
202 16-09-2018 16:45:00 24.1 C 39 % 9.29 C
203 16-09-2018 16:50:00 24.2 C 39 % 9.38 C
204 16-09-2018 16:55:00 24.2 C 39 % 9.38 C
205 16-09-2018 17:00:00 24.3 C 39 % 9.47 C
206 16-09-2018 17:05:00 24.5 C 39 % 9.65 C
207 16-09-2018 17:10:00 24.8 C 37 % 9.13 C
208 16-09-2018 17:15:00 24.9 C 38 % 9.61 C
209 16-09-2018 17:20:00 25.1 C 37 % 9.39 C
210 16-09-2018 17:25:00 25.2 C 37 % 9.48 C
211 16-09-2018 17:30:00 25.2 C 38 % 9.88 C
212 16-09-2018 17:35:00 25 C 38 % 9.7 C
213 16-09-2018 17:40:00 24.8 C 37 % 9.13 C
214 16-09-2018 17:45:00 24.7 C 38 % 9.44 C
215 16-09-2018 17:50:00 24.6 C 40 % 10.11 C
216 16-09-2018 17:55:00 24.4 C 41 % 10.3 C
217 16-09-2018 18:00:00 24.4 C 46 % 12.04 C
218 16-09-2018 18:05:00 24.4 C 41 % 10.3 C
219 16-09-2018 18:10:00 24.4 C 45 % 11.7 C
220 16-09-2018 18:15:00 24.4 C 45 % 11.7 C
221 16-09-2018 18:20:00 24.4 C 46 % 12.04 C
222 16-09-2018 18:25:00 24.4 C 44 % 11.36 C
223 16-09-2018 18:30:00 24.3 C 45 % 11.61 C
224 16-09-2018 18:35:00 24.1 C 46 % 11.76 C
225 16-09-2018 18:40:00 23.8 C 47 % 11.82 C
Sensor: Nr:Datum:Temp:Feuchte:Taupunkt:
Aussen-T/F 226 16-09-2018 18:45:00 23.6 C 47 % 11.63 C
227 16-09-2018 18:50:00 23.4 C 47 % 11.45 C
228 16-09-2018 18:55:00 23 C 48 % 11.41 C
229 16-09-2018 19:00:00 22.5 C 49 % 11.26 C
230 16-09-2018 19:05:00 22 C 49 % 10.8 C
231 16-09-2018 19:10:00 21.5 C 50 % 10.65 C
232 16-09-2018 19:15:00 21.1 C 51 % 10.58 C
233 16-09-2018 19:20:00 20.8 C 52 % 10.59 C
234 16-09-2018 19:25:00 20.4 C 51 % 9.93 C
235 16-09-2018 19:30:00 20.2 C 52 % 10.04 C
236 16-09-2018 19:35:00 19.9 C 53 % 10.04 C
237 16-09-2018 19:40:00 19.6 C 53 % 9.77 C
238 16-09-2018 19:45:00 19.4 C 54 % 9.86 C
239 16-09-2018 19:50:00 19.2 C 54 % 9.67 C
240 16-09-2018 19:55:00 19 C 55 % 9.76 C
241 16-09-2018 20:00:00 18.8 C 55 % 9.58 C
242 16-09-2018 20:05:00 18.7 C 56 % 9.75 C
243 16-09-2018 20:10:00 18.6 C 56 % 9.66 C
244 16-09-2018 20:15:00 18.5 C 57 % 9.83 C
245 16-09-2018 20:20:00 18.4 C 57 % 9.74 C
246 16-09-2018 20:25:00 18.3 C 57 % 9.64 C
247 16-09-2018 20:30:00 18.3 C 57 % 9.64 C
248 16-09-2018 20:35:00 18.3 C 58 % 9.9 C
249 16-09-2018 20:40:00 18.2 C 59 % 10.06 C
250 16-09-2018 20:45:00 18.1 C 59 % 9.97 C
Sensor: Nr:Datum:Temp:Feuchte:Taupunkt:
Aussen-T/F 251 16-09-2018 20:50:00 18.1 C 60 % 10.22 C
252 16-09-2018 20:55:00 17.9 C 60 % 10.03 C
253 16-09-2018 21:00:00 17.9 C 60 % 10.03 C
254 16-09-2018 21:05:00 17.8 C 60 % 9.94 C
255 16-09-2018 21:10:00 17.8 C 60 % 9.94 C
256 16-09-2018 21:15:00 17.7 C 61 % 10.09 C
257 16-09-2018 21:20:00 17.7 C 61 % 10.09 C
258 16-09-2018 21:25:00 17.7 C 61 % 10.09 C
259 16-09-2018 21:30:00 17.6 C 62 % 10.24 C
260 16-09-2018 21:35:00 17.5 C 63 % 10.38 C
261 16-09-2018 21:40:00 17.3 C 63 % 10.2 C
262 16-09-2018 21:45:00 17 C 64 % 10.15 C
263 16-09-2018 21:50:00 16.7 C 65 % 10.09 C
264 16-09-2018 21:55:00 16.5 C 66 % 10.13 C
265 16-09-2018 22:00:00 16.2 C 67 % 10.07 C
266 16-09-2018 22:05:00 16 C 67 % 9.88 C
267 16-09-2018 22:10:00 15.8 C 68 % 9.91 C
268 16-09-2018 22:15:00 15.7 C 68 % 9.82 C
269 16-09-2018 22:20:00 15.6 C 68 % 9.72 C
270 16-09-2018 22:25:00 15.5 C 69 % 9.84 C
271 16-09-2018 22:30:00 15.3 C 69 % 9.65 C
272 16-09-2018 22:35:00 15.2 C 70 % 9.77 C
273 16-09-2018 22:40:00 15 C 71 % 9.79 C
274 16-09-2018 22:45:00 14.8 C 71 % 9.6 C
275 16-09-2018 22:50:00 14.8 C 71 % 9.6 C
Sensor: Nr:Datum:Temp:Feuchte:Taupunkt:
Aussen-T/F 276 16-09-2018 22:55:00 14.8 C 72 % 9.81 C
277 16-09-2018 23:00:00 14.8 C 72 % 9.81 C
278 16-09-2018 23:05:00 14.6 C 72 % 9.61 C
279 16-09-2018 23:10:00 14.4 C 73 % 9.63 C
280 16-09-2018 23:15:00 14.2 C 74 % 9.64 C
281 16-09-2018 23:20:00 14.1 C 75 % 9.74 C
282 16-09-2018 23:25:00 13.9 C 75 % 9.55 C
283 16-09-2018 23:30:00 13.9 C 76 % 9.74 C
284 16-09-2018 23:35:00 13.9 C 76 % 9.74 C
285 16-09-2018 23:40:00 13.9 C 75 % 9.55 C
286 16-09-2018 23:45:00 13.8 C 76 % 9.65 C
287 16-09-2018 23:50:00 13.7 C 75 % 9.35 C
288 16-09-2018 23:55:00 13.5 C 76 % 9.36 C

Legende:
   Min
   Max


Maximal/Minimal-Werte vom 16.09.2018 - 16.09.2018

Sensor Min Max Avg
Temp
(Aussen-T/F)
7.1 °C
16-09-2018  07:05:00
25.2 °C
16-09-2018  17:25:00
14.72 °C
Feuchte
(Aussen-T/F)
37 %
16-09-2018  17:10:00
95 %
16-09-2018  09:25:00
71.41 %
Taupunkt
(Aussen-T/F)
5.89 C
16-09-2018  07:05:00
12.04 C
16-09-2018  18:00:00
8.74 C

Die Daten stammen von einer Davis Vantage Pro 2 Wetter-Station und werden unter Linux mit der Software wview2wettercgi und aufbereitet. Alle Angaben erfolgen ohne Gewähr für ihre Vollständigkeit oder Richtigkeit.
Kontakt: Rainer Krienke krienke@uni-koblenz.de . Meine Webseiten an der Uni Koblenz oder privat.
Version: $Revision: 0.78 $